createdAt,value
2024-02-27T00:00:15.192Z,75.45
2024-02-27T00:03:02.316Z,75.12
2024-02-27T00:05:48.553Z,75.30
2024-02-27T00:08:35.513Z,74.97
2024-02-27T00:11:21.590Z,75.36
2024-02-27T00:14:07.570Z,75.64
2024-02-27T00:17:13.279Z,75.92
2024-02-27T00:19:59.112Z,75.42
2024-02-27T00:22:44.882Z,75.80
2024-02-27T00:25:30.666Z,76.06
2024-02-27T00:28:16.338Z,75.71
2024-02-27T00:31:22.048Z,75.71
2024-02-27T00:34:08.127Z,76.44
2024-02-27T00:36:54.370Z,76.02
2024-02-27T00:39:39.871Z,76.36
2024-02-27T00:42:45.541Z,76.31
2024-02-27T00:45:31.640Z,75.92
2024-02-27T00:48:17.769Z,76.17
2024-02-27T00:51:03.926Z,76.39
2024-02-27T00:53:50.139Z,76.48
2024-02-27T00:56:35.495Z,76.37
2024-02-27T00:59:41.276Z,76.55
2024-02-27T01:02:27.983Z,76.75
2024-02-27T01:05:14.916Z,76.49
2024-02-27T01:08:15.839Z,76.23
2024-02-27T01:11:01.793Z,76.29
2024-02-27T01:13:47.898Z,76.18
2024-02-27T01:16:33.841Z,76.42
2024-02-27T01:19:21.815Z,76.28
2024-02-27T01:22:08.341Z,76.33
2024-02-27T01:25:00.193Z,75.94
2024-02-27T01:27:46.306Z,75.99
2024-02-27T01:30:48.593Z,76.35
2024-02-27T01:33:34.393Z,76.14
2024-02-27T01:36:20.178Z,76.15
2024-02-27T01:39:07.776Z,76.44
2024-02-27T01:41:53.278Z,76.23
2024-02-27T01:44:46.513Z,76.49
2024-02-27T01:47:33.377Z,76.79
2024-02-27T01:50:21.123Z,76.81
2024-02-27T01:53:06.721Z,76.63
2024-02-27T01:55:52.517Z,76.74
2024-02-27T01:58:59.136Z,77.03
2024-02-27T02:01:45.494Z,76.60
2024-02-27T02:04:31.453Z,76.71
2024-02-27T02:07:18.884Z,76.49
2024-02-27T02:10:05.340Z,76.91
2024-02-27T02:12:51.295Z,76.89
2024-02-27T02:15:37.437Z,76.59
2024-02-27T02:18:24.312Z,76.87
2024-02-27T02:21:10.538Z,76.93
2024-02-27T02:24:01.032Z,76.49
2024-02-27T02:27:08.249Z,76.47
2024-02-27T02:29:55.449Z,76.37
2024-02-27T02:33:12.596Z,76.33
2024-02-27T02:35:58.862Z,76.56
2024-02-27T02:39:04.572Z,76.17
2024-02-27T02:41:51.127Z,76.17
2024-02-27T02:44:36.795Z,75.68
2024-02-27T02:47:22.491Z,75.50
2024-02-27T02:50:09.063Z,75.82
2024-02-27T02:52:54.516Z,75.40
2024-02-27T02:55:43.508Z,75.52
2024-02-27T02:58:29.251Z,75.51
2024-02-27T03:01:15.079Z,75.06
2024-02-27T03:04:21.411Z,75.28
2024-02-27T03:07:27.208Z,74.78
2024-02-27T03:10:13.198Z,75.05
2024-02-27T03:13:14.537Z,75.02
2024-02-27T03:16:00.529Z,75.04
2024-02-27T03:18:46.750Z,74.65
2024-02-27T03:21:33.985Z,74.86
2024-02-27T03:24:20.176Z,75.40
2024-02-27T03:27:26.277Z,74.81
2024-02-27T03:30:14.593Z,74.58
2024-02-27T03:33:01.524Z,74.82
2024-02-27T03:35:47.739Z,74.19
2024-02-27T03:38:34.602Z,74.02
2024-02-27T03:41:20.552Z,73.89
2024-02-27T03:44:06.822Z,74.27
2024-02-27T03:46:54.454Z,73.78
2024-02-27T03:50:00.226Z,74.02
2024-02-27T03:52:46.076Z,73.90
2024-02-27T03:55:35.229Z,74.32
2024-02-27T03:58:21.414Z,74.21
2024-02-27T04:01:07.217Z,74.11
2024-02-27T04:04:15.327Z,74.53
2024-02-27T04:07:16.522Z,74.68
2024-02-27T04:10:03.260Z,74.61
2024-02-27T04:13:10.036Z,75.03
2024-02-27T04:15:55.966Z,75.01
2024-02-27T04:18:57.215Z,74.67
2024-02-27T04:21:43.784Z,74.77
2024-02-27T04:24:29.952Z,74.90
2024-02-27T04:27:15.209Z,74.79
2024-02-27T04:30:01.021Z,74.95
2024-02-27T04:33:06.799Z,74.68
2024-02-27T04:35:52.790Z,74.82
2024-02-27T04:38:38.912Z,74.29
2024-02-27T04:41:24.812Z,74.17
2024-02-27T04:44:12.842Z,74.25
2024-02-27T04:46:58.980Z,74.26
2024-02-27T04:49:44.702Z,74.42
2024-02-27T04:52:30.460Z,74.11
2024-02-27T04:55:32.161Z,74.09
2024-02-27T04:58:18.080Z,74.25
2024-02-27T05:01:04.419Z,74.14
2024-02-27T05:03:50.658Z,74.37
2024-02-27T05:07:00.106Z,74.15
2024-02-27T05:09:47.086Z,74.44
2024-02-27T05:12:33.419Z,74.19
2024-02-27T05:15:20.308Z,74.18
2024-02-27T05:18:07.973Z,74.27
2024-02-27T05:20:53.883Z,74.68
2024-02-27T05:23:59.785Z,74.18
2024-02-27T05:27:05.713Z,74.81
2024-02-27T05:30:12.568Z,74.58
2024-02-27T05:32:58.899Z,74.26
2024-02-27T05:35:44.842Z,75.00
2024-02-27T05:38:30.398Z,74.60
2024-02-27T05:41:16.455Z,75.23
2024-02-27T05:44:02.726Z,75.01
2024-02-27T05:46:48.601Z,74.92
2024-02-27T05:49:34.271Z,75.33
2024-02-27T05:52:20.249Z,75.39
2024-02-27T05:55:26.334Z,75.40
2024-02-27T05:58:13.098Z,74.97
2024-02-27T06:00:58.914Z,75.34
2024-02-27T06:03:45.263Z,75.21
2024-02-27T06:06:32.008Z,75.24
2024-02-27T06:09:18.281Z,75.40
2024-02-27T06:12:04.819Z,75.46
2024-02-27T06:14:52.212Z,75.84
2024-02-27T06:17:37.796Z,75.41
2024-02-27T06:20:41.995Z,75.30
2024-02-27T06:23:32.734Z,75.69
2024-02-27T06:26:18.970Z,75.58
2024-02-27T06:29:24.576Z,74.82
2024-02-27T06:32:12.600Z,74.10
2024-02-27T06:34:58.546Z,74.17
2024-02-27T06:37:45.206Z,73.61
2024-02-27T06:40:31.072Z,73.14
2024-02-27T06:43:17.007Z,72.42
2024-02-27T06:46:02.354Z,72.10
2024-02-27T06:48:49.693Z,71.91
2024-02-27T06:51:35.271Z,71.33
2024-02-27T06:54:22.307Z,70.72
2024-02-27T06:57:29.935Z,70.02
2024-02-27T07:00:36.456Z,69.92
2024-02-27T07:03:22.779Z,69.68
2024-02-27T07:06:08.882Z,69.54
2024-02-27T07:08:56.759Z,68.99
2024-02-27T07:11:42.705Z,68.98
2024-02-27T07:14:34.094Z,69.34
2024-02-27T07:17:21.489Z,68.78
2024-02-27T07:20:10.246Z,68.92
2024-02-27T07:22:56.464Z,68.71
2024-02-27T07:25:42.738Z,68.26
2024-02-27T07:28:32.968Z,67.75
2024-02-27T07:31:21.902Z,67.94
2024-02-27T07:34:07.727Z,67.92
2024-02-27T07:36:54.212Z,67.08
2024-02-27T07:39:40.098Z,66.64
2024-02-27T07:42:25.993Z,66.30
2024-02-27T07:45:12.395Z,65.80
2024-02-27T07:47:58.208Z,66.15
2024-02-27T07:50:44.485Z,66.32
2024-02-27T07:53:29.876Z,65.88
2024-02-27T07:56:15.650Z,66.89
2024-02-27T07:59:01.347Z,66.15
2024-02-27T08:01:55.271Z,66.58
2024-02-27T08:04:40.843Z,66.62
2024-02-27T08:07:26.980Z,66.08
2024-02-27T08:10:13.033Z,66.69
2024-02-27T08:13:13.712Z,66.34
2024-02-27T08:15:59.978Z,66.62
2024-02-27T08:18:46.740Z,66.69
2024-02-27T08:21:34.027Z,66.30
2024-02-27T08:24:20.183Z,65.66
2024-02-27T08:27:07.166Z,66.28
2024-02-27T08:29:53.423Z,67.02
2024-02-27T08:32:39.159Z,66.47
2024-02-27T08:35:25.110Z,65.99
2024-02-27T08:38:11.110Z,65.67
2024-02-27T08:40:57.831Z,65.69
2024-02-27T08:43:44.394Z,65.71
2024-02-27T08:46:30.792Z,66.58
2024-02-27T08:49:37.378Z,66.42
2024-02-27T08:52:23.265Z,66.28
2024-02-27T08:55:09.325Z,65.72
2024-02-27T08:57:55.020Z,65.91
2024-02-27T09:00:42.021Z,66.19
2024-02-27T09:03:28.077Z,65.39
2024-02-27T09:06:33.639Z,66.13
2024-02-27T09:09:21.804Z,65.54
2024-02-27T09:12:28.394Z,65.72
2024-02-27T09:15:14.988Z,66.65
2024-02-27T09:18:01.001Z,66.52
2024-02-27T09:20:47.242Z,66.21
2024-02-27T09:23:33.222Z,65.24
2024-02-27T09:26:18.757Z,64.97
2024-02-27T09:29:05.726Z,65.53
2024-02-27T09:32:11.113Z,65.53
2024-02-27T09:35:16.781Z,64.47
2024-02-27T09:38:03.706Z,64.73
2024-02-27T09:40:51.732Z,64.55
2024-02-27T09:43:48.445Z,64.10
2024-02-27T09:46:56.214Z,64.84
2024-02-27T09:50:04.428Z,64.78
2024-02-27T09:52:52.387Z,64.93
2024-02-27T09:55:39.056Z,63.85
2024-02-27T09:58:25.856Z,63.93
2024-02-27T10:01:14.577Z,64.13
2024-02-27T10:04:01.132Z,64.12
2024-02-27T10:06:49.308Z,64.99
2024-02-27T10:09:37.634Z,64.08
2024-02-27T10:12:23.791Z,64.39
2024-02-27T10:15:09.927Z,63.83
2024-02-27T10:18:16.804Z,63.81
2024-02-27T10:21:05.307Z,63.73
2024-02-27T10:23:51.946Z,63.88
2024-02-27T10:26:52.904Z,63.48
2024-02-27T10:29:40.840Z,63.90
2024-02-27T10:32:32.048Z,64.05
2024-02-27T10:35:18.635Z,63.62
2024-02-27T10:38:24.022Z,62.90
2024-02-27T10:41:10.242Z,62.73
2024-02-27T10:44:16.159Z,62.71
2024-02-27T10:47:02.471Z,63.79
2024-02-27T10:49:51.231Z,63.22
2024-02-27T10:52:57.694Z,63.27
2024-02-27T10:55:48.350Z,62.87
2024-02-27T10:58:56.413Z,62.23
2024-02-27T11:01:47.617Z,62.33
2024-02-27T11:04:37.717Z,62.52
2024-02-27T11:07:44.025Z,62.56
2024-02-27T11:10:31.838Z,61.69
2024-02-27T11:13:41.364Z,61.50
2024-02-27T11:16:30.236Z,61.90
2024-02-27T11:19:22.688Z,62.03
2024-02-27T11:22:09.999Z,61.11
2024-02-27T11:24:55.818Z,61.03
2024-02-27T11:27:42.416Z,62.21
2024-02-27T11:30:30.443Z,61.62
2024-02-27T11:33:21.435Z,60.89
2024-02-27T11:36:08.083Z,60.53
2024-02-27T11:38:54.094Z,60.47
2024-02-27T11:41:40.477Z,60.53
2024-02-27T11:44:27.598Z,60.05
2024-02-27T11:47:42.764Z,60.11
2024-02-27T11:50:38.089Z,59.86
2024-02-27T11:53:31.953Z,59.67
2024-02-27T11:56:19.236Z,59.40
2024-02-27T11:59:04.780Z,59.89
2024-02-27T12:02:06.826Z,59.54
2024-02-27T12:04:52.757Z,59.35
2024-02-27T12:07:38.582Z,59.65
2024-02-27T12:10:25.729Z,58.63
2024-02-27T12:13:11.637Z,58.71
2024-02-27T12:15:58.415Z,58.82
2024-02-27T12:18:46.516Z,57.98
2024-02-27T12:21:35.811Z,57.98
2024-02-27T12:24:21.810Z,57.53
2024-02-27T12:27:07.730Z,57.86
2024-02-27T12:29:53.779Z,57.48
2024-02-27T12:32:43.343Z,57.48
2024-02-27T12:35:49.214Z,57.31
2024-02-27T12:38:55.828Z,57.51
2024-02-27T12:41:41.421Z,57.38
2024-02-27T12:44:28.271Z,57.54
2024-02-27T12:47:34.011Z,56.77
2024-02-27T12:50:21.195Z,57.42
2024-02-27T12:53:12.864Z,57.03
2024-02-27T12:55:59.852Z,57.42
2024-02-27T12:58:51.026Z,57.01
2024-02-27T13:01:41.419Z,57.28
2024-02-27T13:04:48.101Z,56.90
2024-02-27T13:07:41.297Z,56.68
2024-02-27T13:10:27.523Z,56.83
2024-02-27T13:13:18.309Z,56.77
2024-02-27T13:16:14.260Z,56.79
2024-02-27T13:19:00.283Z,57.01
2024-02-27T13:21:46.131Z,56.46
2024-02-27T13:24:32.575Z,56.80
2024-02-27T13:27:18.925Z,56.97
2024-02-27T13:30:05.554Z,56.70
2024-02-27T13:32:51.567Z,56.93
2024-02-27T13:35:36.971Z,57.11
2024-02-27T13:38:24.281Z,56.56
2024-02-27T13:41:10.586Z,55.94
2024-02-27T13:43:56.383Z,55.69
2024-02-27T13:46:42.203Z,56.17
2024-02-27T13:49:27.622Z,56.29
2024-02-27T13:52:13.366Z,56.52
2024-02-27T13:54:59.146Z,56.49
2024-02-27T13:57:44.866Z,56.93
2024-02-27T14:00:30.866Z,56.93
2024-02-27T14:03:16.490Z,56.77
2024-02-27T14:06:03.107Z,56.50
2024-02-27T14:08:48.815Z,56.78
2024-02-27T14:11:34.947Z,56.73
2024-02-27T14:14:21.889Z,56.86
2024-02-27T14:17:07.886Z,56.84
2024-02-27T14:19:53.740Z,56.72
2024-02-27T14:22:40.148Z,57.30
2024-02-27T14:25:25.711Z,57.34
2024-02-27T14:28:11.432Z,57.79
2024-02-27T14:30:57.444Z,57.79
2024-02-27T14:33:43.263Z,58.05
2024-02-27T14:36:29.204Z,58.32
2024-02-27T14:39:14.962Z,58.49
2024-02-27T14:42:00.758Z,58.38
2024-02-27T14:44:46.331Z,59.21
2024-02-27T14:47:32.157Z,59.68
2024-02-27T14:50:17.900Z,60.11
2024-02-27T14:53:04.428Z,60.01
2024-02-27T14:55:51.414Z,60.18
2024-02-27T14:58:37.185Z,60.28
2024-02-27T15:01:25.042Z,60.47
2024-02-27T15:04:15.474Z,60.28
2024-02-27T15:07:01.682Z,60.60
2024-02-27T15:09:47.939Z,60.66
2024-02-27T15:12:54.036Z,60.87
2024-02-27T15:15:40.259Z,61.04
2024-02-27T15:18:26.751Z,61.29
2024-02-27T15:21:13.297Z,61.71
2024-02-27T15:23:59.357Z,61.61
2024-02-27T15:26:44.905Z,61.61
2024-02-27T15:29:31.358Z,61.55
2024-02-27T15:32:37.126Z,62.07
2024-02-27T15:35:22.886Z,62.12
2024-02-27T15:38:08.916Z,62.32
2024-02-27T15:40:56.733Z,62.48
2024-02-27T15:43:42.290Z,62.60
2024-02-27T15:46:28.204Z,62.71
2024-02-27T15:49:14.075Z,63.10
2024-02-27T15:52:00.555Z,63.30
2024-02-27T15:54:46.209Z,63.23
2024-02-27T15:57:51.751Z,63.27
2024-02-27T16:00:46.789Z,63.33
2024-02-27T16:03:51.257Z,63.29
2024-02-27T16:06:45.757Z,63.23
2024-02-27T16:09:31.465Z,63.34
2024-02-27T16:12:21.937Z,63.68
2024-02-27T16:15:11.811Z,63.65
2024-02-27T16:17:59.764Z,63.56
2024-02-27T16:21:05.832Z,63.52
2024-02-27T16:24:11.348Z,63.64
2024-02-27T16:27:17.032Z,63.54
2024-02-27T16:30:04.760Z,63.98
2024-02-27T16:32:51.978Z,64.12
2024-02-27T16:35:38.356Z,64.23
2024-02-27T16:38:23.712Z,64.35
2024-02-27T16:41:09.122Z,64.39
2024-02-27T16:44:14.873Z,64.59
2024-02-27T16:47:20.265Z,64.52
2024-02-27T16:50:06.844Z,64.65
2024-02-27T16:52:53.154Z,64.57
2024-02-27T16:55:40.164Z,64.66
2024-02-27T16:58:26.149Z,64.85
2024-02-27T17:01:11.763Z,64.58
2024-02-27T17:03:57.954Z,64.75
2024-02-27T17:06:44.704Z,64.75
2024-02-27T17:09:31.763Z,64.80
2024-02-27T17:12:17.530Z,64.92
2024-02-27T17:15:03.600Z,64.77
2024-02-27T17:17:53.876Z,64.91
2024-02-27T17:20:39.685Z,64.86
2024-02-27T17:23:26.650Z,65.21
2024-02-27T17:26:13.508Z,64.63
2024-02-27T17:29:00.950Z,64.39
2024-02-27T17:31:46.803Z,64.55
2024-02-27T17:34:32.428Z,64.47
2024-02-27T17:37:18.394Z,64.24
2024-02-27T17:40:04.580Z,63.93
2024-02-27T17:42:50.316Z,64.05
2024-02-27T17:45:37.174Z,64.12
2024-02-27T17:48:23.209Z,64.29
2024-02-27T17:51:10.771Z,64.11
2024-02-27T17:53:56.524Z,63.85
2024-02-27T17:56:42.041Z,64.02
2024-02-27T17:59:27.757Z,63.83
2024-02-27T18:02:15.104Z,64.35
2024-02-27T18:05:01.610Z,64.13
2024-02-27T18:08:07.153Z,64.21
2024-02-27T18:11:12.621Z,64.43
2024-02-27T18:13:58.415Z,64.53
2024-02-27T18:16:44.437Z,64.52
2024-02-27T18:19:30.333Z,64.56
2024-02-27T18:22:16.735Z,64.53
2024-02-27T18:25:04.777Z,64.34
2024-02-27T18:27:50.538Z,64.61
2024-02-27T18:30:38.347Z,64.49
2024-02-27T18:33:24.633Z,64.74
2024-02-27T18:36:10.654Z,64.64
2024-02-27T18:38:56.390Z,64.28
2024-02-27T18:41:42.024Z,64.36
2024-02-27T18:44:47.501Z,64.50
2024-02-27T18:47:33.650Z,64.95
2024-02-27T18:50:21.006Z,65.23
2024-02-27T18:53:06.878Z,64.96
2024-02-27T18:55:53.761Z,65.18
2024-02-27T18:58:39.703Z,65.09
2024-02-27T19:01:25.905Z,64.97
2024-02-27T19:04:13.507Z,64.92
2024-02-27T19:06:59.836Z,64.92
2024-02-27T19:09:45.919Z,64.54
2024-02-27T19:12:32.299Z,64.74
2024-02-27T19:15:18.315Z,64.63
2024-02-27T19:18:24.023Z,64.20
2024-02-27T19:21:30.026Z,64.63
2024-02-27T19:24:35.983Z,64.46
2024-02-27T19:27:42.332Z,63.60
2024-02-27T19:30:37.791Z,63.51
2024-02-27T19:33:39.331Z,63.34
2024-02-27T19:36:25.244Z,62.99
2024-02-27T19:39:12.471Z,63.05
2024-02-27T19:42:18.031Z,62.88
2024-02-27T19:45:04.841Z,62.66
2024-02-27T19:47:50.893Z,62.63
2024-02-27T19:50:36.793Z,62.56
2024-02-27T19:53:23.208Z,62.58
2024-02-27T19:56:08.930Z,62.24
2024-02-27T19:59:14.871Z,62.27
2024-02-27T20:02:00.789Z,61.69
2024-02-27T20:04:46.866Z,62.08
2024-02-27T20:07:32.876Z,61.63
2024-02-27T20:10:18.582Z,61.35
2024-02-27T20:13:05.562Z,61.37
2024-02-27T20:15:54.585Z,61.27
2024-02-27T20:18:40.624Z,61.37
2024-02-27T20:21:27.030Z,61.46
2024-02-27T20:24:12.916Z,61.28
2024-02-27T20:26:58.917Z,61.31
2024-02-27T20:29:55.862Z,61.25
2024-02-27T20:32:46.448Z,61.04
2024-02-27T20:35:32.946Z,61.08
2024-02-27T20:38:38.327Z,60.77
2024-02-27T20:41:24.484Z,61.02
2024-02-27T20:44:10.193Z,60.88
2024-02-27T20:46:56.207Z,60.76
2024-02-27T20:49:41.712Z,60.27
2024-02-27T20:52:27.964Z,60.82
2024-02-27T20:55:15.558Z,61.14
2024-02-27T20:58:01.498Z,60.83
2024-02-27T21:00:47.923Z,60.37
2024-02-27T21:03:33.777Z,60.85
2024-02-27T21:06:19.394Z,60.59
2024-02-27T21:09:06.135Z,60.48
2024-02-27T21:11:52.196Z,60.64
2024-02-27T21:15:01.432Z,60.92
2024-02-27T21:17:47.504Z,61.01
2024-02-27T21:20:33.332Z,60.82
2024-02-27T21:23:18.985Z,60.59
2024-02-27T21:26:09.056Z,60.76
2024-02-27T21:28:54.822Z,60.45
2024-02-27T21:32:00.692Z,60.74
2024-02-27T21:35:06.546Z,60.90
2024-02-27T21:37:52.450Z,61.01
2024-02-27T21:40:58.208Z,61.27
2024-02-27T21:43:45.184Z,60.96
2024-02-27T21:46:38.646Z,61.54
2024-02-27T21:49:24.714Z,61.71
2024-02-27T21:52:10.481Z,61.50
2024-02-27T21:54:56.327Z,62.06
2024-02-27T21:57:42.805Z,62.21
2024-02-27T22:00:28.624Z,62.07
2024-02-27T22:03:34.541Z,62.40
2024-02-27T22:06:21.209Z,62.83
2024-02-27T22:09:10.047Z,62.55
2024-02-27T22:11:56.353Z,62.52
2024-02-27T22:14:42.132Z,62.96
2024-02-27T22:17:28.043Z,62.54
2024-02-27T22:20:13.621Z,62.37
2024-02-27T22:23:19.585Z,62.64
2024-02-27T22:26:05.238Z,63.09
2024-02-27T22:28:50.926Z,62.83
2024-02-27T22:31:36.366Z,62.94
2024-02-27T22:34:23.326Z,63.26
2024-02-27T22:37:08.761Z,62.93
2024-02-27T22:39:54.760Z,63.32
2024-02-27T22:42:40.836Z,62.94
2024-02-27T22:45:27.012Z,63.15
2024-02-27T22:48:13.194Z,63.28
2024-02-27T22:50:58.970Z,62.77
2024-02-27T22:53:44.677Z,63.12
2024-02-27T22:56:30.247Z,62.96
2024-02-27T22:59:16.316Z,62.92
2024-02-27T23:02:02.432Z,62.64
2024-02-27T23:04:48.328Z,62.39
2024-02-27T23:07:33.865Z,62.65
2024-02-27T23:10:19.601Z,62.66
2024-02-27T23:13:05.313Z,62.35
2024-02-27T23:15:51.173Z,62.20
2024-02-27T23:18:57.339Z,62.09
2024-02-27T23:21:45.505Z,62.00
2024-02-27T23:24:33.133Z,62.36
2024-02-27T23:27:19.007Z,61.90
2024-02-27T23:30:06.370Z,61.60
2024-02-27T23:32:52.390Z,62.06
2024-02-27T23:35:38.482Z,62.26
2024-02-27T23:38:24.908Z,61.86
2024-02-27T23:41:11.465Z,62.28
2024-02-27T23:43:57.308Z,61.87
2024-02-27T23:46:44.161Z,62.29
2024-02-27T23:49:30.118Z,62.46
2024-02-27T23:52:15.860Z,62.30
2024-02-27T23:55:01.466Z,62.21
2024-02-27T23:57:47.173Z,62.31
